Time;durP1;ratioP1;P1;durP2;ratioP2;P2;SDS_P1;SDS_P2;PMS_P1;PMS_P2;Temp;Humidity;BMP_temperature;BMP_pressure;BME280_temperature;BME280_humidity;BME280_pressure;Samples;Min_cycle;Max_cycle;Signal;HPM_P1;HPM_P2
2022/05/04 00:00:23;;;;;;;;;;;;;;;22.00;33.89;101905.72;2091248;28;1045;-58
2022/05/04 00:01:23;;;;;;;;;;;;;;;22.02;33.93;101903.88;2091212;28;768;-59
2022/05/04 00:02:23;;;;;;;;;;;;;;;22.02;33.82;101903.88;2090501;28;1333;-59
2022/05/04 00:03:23;;;;;;;;;;;;;;;22.01;33.29;101902.97;2090448;28;1150;-59
2022/05/04 00:04:23;;;;;;;;;;;;;;;22.00;33.02;101898.50;2082934;28;1981;-59
2022/05/04 00:05:24;;;;;;;;;;;;;;;21.99;33.24;101902.09;2082971;28;945;-59
2022/05/04 00:06:26;;;;;;;;;;;;;;;21.99;33.32;101896.72;2082926;28;837;-59
2022/05/04 00:07:26;;;;;;;;;;;;;;;21.99;33.29;101899.41;2082974;28;817;-59
2022/05/04 00:08:26;;;;;;;;;;;;;;;21.99;33.53;101901.25;2083000;28;822;-58
2022/05/04 00:09:27;;;;;;;;;;;;;;;21.98;34.05;101908.44;2082907;28;918;-58
2022/05/04 00:10:27;;;;;;;;;;;;;;;21.99;33.28;101903.94;2082898;28;972;-59
2022/05/04 00:11:27;;;;;;;;;;;;;;;21.98;33.86;101911.13;2082895;28;929;-59
2022/05/04 00:12:27;;;;;;;;;;;;;;;21.98;33.46;101912.94;2082916;28;861;-58
2022/05/04 00:13:28;;;;;;;;;;;;;;;21.97;33.79;101912.03;2082954;28;797;-58
2022/05/04 00:14:29;;;;;;;;;;;;;;;21.97;33.18;101909.34;2083058;28;724;-59
2022/05/04 00:15:29;;;;;;;;;;;;;;;21.97;34.17;101911.19;2083109;28;776;-58
2022/05/04 00:16:30;;;;;;;;;;;;;;;21.95;34.15;101911.19;2082920;28;771;-58
2022/05/04 00:17:30;;;;;;;;;;;;;;;21.95;33.34;101916.59;2082907;28;913;-58
2022/05/04 00:18:30;;;;;;;;;;;;;;;21.94;34.13;101917.50;2083034;28;909;-59
2022/05/04 00:19:30;;;;;;;;;;;;;;;21.95;34.07;101918.41;2082890;28;771;-59
2022/05/04 00:20:31;;;;;;;;;;;;;;;21.95;34.08;101921.13;2082943;28;1027;-59
2022/05/04 00:21:31;;;;;;;;;;;;;;;21.95;34.12;101923.81;2082890;28;855;-59
2022/05/04 00:22:31;;;;;;;;;;;;;;;21.96;33.42;101925.59;2082882;28;846;-59
2022/05/04 00:23:31;;;;;;;;;;;;;;;21.94;33.48;101925.59;2082989;28;858;-58
2022/05/04 00:24:31;;;;;;;;;;;;;;;21.94;33.57;101922.91;2082812;28;1914;-58
2022/05/04 00:25:31;;;;;;;;;;;;;;;21.94;33.34;101930.13;2082884;28;957;-59
2022/05/04 00:26:31;;;;;;;;;;;;;;;21.94;33.58;101930.13;2082905;28;811;-59
2022/05/04 00:27:33;;;;;;;;;;;;;;;21.93;33.80;101931.91;2082992;28;788;-59
2022/05/04 00:28:33;;;;;;;;;;;;;;;21.92;33.45;101930.16;2082850;28;803;-59
2022/05/04 00:29:33;;;;;;;;;;;;;;;21.91;33.70;101934.66;2082835;28;984;-59
2022/05/04 00:30:33;;;;;;;;;;;;;;;21.93;33.41;101929.22;2082878;28;779;-59
2022/05/04 00:31:33;;;;;;;;;;;;;;;21.93;33.33;101929.22;2082882;28;787;-59
2022/05/04 00:32:33;;;;;;;;;;;;;;;21.93;33.44;101931.91;2082852;28;850;-59
2022/05/04 00:33:34;;;;;;;;;;;;;;;21.92;34.12;101935.53;2082830;28;965;-59
2022/05/04 00:34:34;;;;;;;;;;;;;;;21.91;34.15;101934.66;2082857;28;827;-59
2022/05/04 00:35:34;;;;;;;;;;;;;;;21.91;34.13;101931.06;2082896;28;969;-59
2022/05/04 00:36:34;;;;;;;;;;;;;;;21.91;33.59;101933.75;2082800;28;1000;-59
2022/05/04 00:37:34;;;;;;;;;;;;;;;21.91;33.78;101928.38;2082717;28;1196;-59
2022/05/04 00:38:35;;;;;;;;;;;;;;;21.90;33.59;101931.97;2082832;28;814;-59
2022/05/04 00:39:35;;;;;;;;;;;;;;;21.91;33.53;101931.97;2082836;28;803;-59
2022/05/04 00:40:35;;;;;;;;;;;;;;;21.91;33.51;101936.47;2082940;28;806;-59
2022/05/04 00:41:35;;;;;;;;;;;;;;;21.91;33.89;101931.06;2082784;28;855;-59
2022/05/04 00:42:36;;;;;;;;;;;;;;;21.89;34.25;101931.13;2082799;28;961;-59
2022/05/04 00:43:36;;;;;;;;;;;;;;;21.89;33.70;101941.00;2082795;28;977;-59
2022/05/04 00:44:36;;;;;;;;;;;;;;;21.89;33.60;101938.31;2082822;28;1961;-59
2022/05/04 00:45:36;;;;;;;;;;;;;;;21.88;33.53;101934.72;2082795;28;877;-58
2022/05/04 00:46:36;;;;;;;;;;;;;;;21.88;33.80;101931.13;2082055;28;855;-58
2022/05/04 00:47:37;;;;;;;;;;;;;;;21.89;33.61;101935.59;2082195;28;977;-58
2022/05/04 00:48:37;;;;;;;;;;;;;;;21.89;34.37;101925.72;2082758;28;989;-58
2022/05/04 00:49:38;;;;;;;;;;;;;;;21.89;33.46;101933.81;2082752;28;977;-59
2022/05/04 00:50:39;;;;;;;;;;;;;;;21.88;33.51;101937.44;2082775;28;985;-59
2022/05/04 00:51:39;;;;;;;;;;;;;;;21.88;33.81;101931.13;2082782;28;1044;-59
2022/05/04 00:52:42;;;;;;;;;;;;;;;21.88;33.80;101936.53;2082762;28;882;-59
2022/05/04 00:53:42;;;;;;;;;;;;;;;21.88;33.84;101939.22;2082748;28;985;-59
2022/05/04 00:54:43;;;;;;;;;;;;;;;21.86;34.50;101941.97;2082684;28;1211;-59
2022/05/04 00:55:44;;;;;;;;;;;;;;;21.86;34.36;101936.56;2082789;28;890;-59
2022/05/04 00:56:44;;;;;;;;;;;;;;;21.87;33.70;101941.03;2082066;28;879;-59
2022/05/04 00:59:03;;;;;;;;;;;;;;;21.87;34.27;101941.03;2082753;28;661;-58
2022/05/04 01:00:04;;;;;;;;;;;;;;;21.86;33.55;101941.06;2082765;28;846;-59
2022/05/04 01:01:05;;;;;;;;;;;;;;;21.86;34.03;101947.38;2082113;28;867;-59
2022/05/04 01:02:05;;;;;;;;;;;;;;;21.85;34.05;101950.06;2082119;28;910;-59
2022/05/04 01:03:05;;;;;;;;;;;;;;;21.84;34.38;101946.50;2088924;28;1271;-59
2022/05/04 01:04:05;;;;;;;;;;;;;;;21.85;33.56;101944.69;2091756;28;1910;-59
2022/05/04 01:05:09;;;;;;;;;;;;;;;21.84;33.45;101949.19;2091954;28;1013;-59
2022/05/04 01:06:09;;;;;;;;;;;;;;;21.85;33.49;101948.28;2092535;28;795;-59
2022/05/04 01:07:09;;;;;;;;;;;;;;;21.85;33.73;101950.06;2092622;28;708;-59
2022/05/04 01:08:09;;;;;;;;;;;;;;;21.84;33.64;101943.81;2092517;28;843;-59
2022/05/04 01:09:10;;;;;;;;;;;;;;;21.84;33.84;101948.28;2091770;28;1214;-59
2022/05/04 01:10:11;;;;;;;;;;;;;;;21.85;34.02;101950.06;2091901;28;779;-59
2022/05/04 01:11:11;;;;;;;;;;;;;;;21.84;33.88;101949.19;2083574;28;883;-59
2022/05/04 01:12:11;;;;;;;;;;;;;;;21.83;34.45;101951.91;2083618;28;994;-59
2022/05/04 01:13:11;;;;;;;;;;;;;;;21.83;34.00;101952.81;2092450;28;791;-59
2022/05/04 01:14:12;;;;;;;;;;;;;;;21.83;34.42;101949.22;2093031;28;981;-59
2022/05/04 01:15:12;;;;;;;;;;;;;;;21.82;34.00;101947.44;2093311;28;996;-59
2022/05/04 01:16:13;;;;;;;;;;;;;;;21.82;33.96;101953.75;2092574;28;886;-59
2022/05/04 01:17:13;;;;;;;;;;;;;;;21.83;34.55;101947.44;2091979;28;1008;-59
2022/05/04 01:18:13;;;;;;;;;;;;;;;21.83;33.83;101949.22;2091887;28;1032;-59
2022/05/04 01:19:13;;;;;;;;;;;;;;;21.83;33.86;101960.00;2092412;28;665;-59
2022/05/04 01:20:14;;;;;;;;;;;;;;;21.83;34.32;101957.31;2092419;28;752;-58
2022/05/04 01:21:14;;;;;;;;;;;;;;;21.83;33.74;101962.72;2091723;28;1443;-59
2022/05/04 01:22:14;;;;;;;;;;;;;;;21.83;34.47;101962.72;2091795;28;1032;-59
2022/05/04 01:23:15;;;;;;;;;;;;;;;21.83;33.63;101970.78;2092397;28;775;-59
2022/05/04 01:24:15;;;;;;;;;;;;;;;21.83;34.37;101966.31;2092287;28;1878;-59
2022/05/04 01:25:16;;;;;;;;;;;;;;;21.83;33.76;101962.72;2092382;28;760;-59
2022/05/04 01:26:16;;;;;;;;;;;;;;;21.83;33.60;101965.41;2092453;28;756;-58
2022/05/04 01:27:17;;;;;;;;;;;;;;;21.83;33.72;101965.41;2092349;28;859;-58
2022/05/04 01:28:17;;;;;;;;;;;;;;;21.82;33.72;101967.22;2092336;28;977;-59
2022/05/04 01:29:17;;;;;;;;;;;;;;;21.82;33.92;101959.13;2092282;28;593;-58
2022/05/04 01:30:17;;;;;;;;;;;;;;;21.82;33.74;101967.22;2092306;28;851;-58
2022/05/04 01:31:18;;;;;;;;;;;;;;;21.81;33.93;101956.44;2092322;28;934;-58
2022/05/04 01:32:18;;;;;;;;;;;;;;;21.81;34.26;101960.06;2092436;28;1025;-59
2022/05/04 01:33:18;;;;;;;;;;;;;;;21.81;33.86;101965.44;2092297;28;831;-59
2022/05/04 01:34:20;;;;;;;;;;;;;;;21.81;34.49;101959.16;2092284;28;862;-59
2022/05/04 01:35:20;;;;;;;;;;;;;;;21.81;33.68;101964.53;2092267;28;819;-59
2022/05/04 01:36:20;;;;;;;;;;;;;;;21.81;34.28;101964.53;2092402;28;752;-59
2022/05/04 01:37:21;;;;;;;;;;;;;;;21.82;34.25;101971.72;2092248;28;855;-59
2022/05/04 01:38:21;;;;;;;;;;;;;;;21.81;34.14;101973.53;2092262;28;965;-59
2022/05/04 01:39:21;;;;;;;;;;;;;;;21.80;34.01;101969.06;2092305;28;760;-59
2022/05/04 01:40:21;;;;;;;;;;;;;;;21.80;34.42;101969.06;2092272;28;961;-59
2022/05/04 01:42:41;;;;;;;;;;;;;;;21.81;33.67;101983.41;2092413;28;625;-59
2022/05/04 01:43:41;;;;;;;;;;;;;;;21.81;33.61;101981.63;2092301;28;831;-59
2022/05/04 01:44:42;;;;;;;;;;;;;;;21.81;34.22;101972.63;2092166;28;1945;-58
2022/05/04 01:45:42;;;;;;;;;;;;;;;21.80;34.18;101978.94;2092219;28;1090;-59
2022/05/04 01:46:42;;;;;;;;;;;;;;;21.81;33.85;101991.50;2092306;28;870;-59
2022/05/04 01:47:47;;;;;;;;;;;;;;;21.80;34.32;101987.94;2092171;28;961;-59
2022/05/04 01:48:49;;;;;;;;;;;;;;;21.79;34.57;101982.56;2092197;28;830;-59
2022/05/04 01:49:49;;;;;;;;;;;;;;;21.80;33.97;101984.34;2092174;28;827;-59
2022/05/04 01:50:49;;;;;;;;;;;;;;;21.80;34.62;101978.94;2092165;28;763;-59
2022/05/04 01:51:49;;;;;;;;;;;;;;;21.80;33.85;101985.25;2092140;28;985;-59
2022/05/04 01:52:50;;;;;;;;;;;;;;;21.81;33.67;101984.34;2092172;28;978;-59
2022/05/04 01:53:50;;;;;;;;;;;;;;;21.80;34.44;101977.16;2092366;28;1166;-59
2022/05/04 01:54:50;;;;;;;;;;;;;;;21.81;34.11;101980.72;2092118;28;787;-59
2022/05/04 01:55:50;;;;;;;;;;;;;;;21.80;34.01;101976.25;2092111;28;1028;-59
2022/05/04 01:56:50;;;;;;;;;;;;;;;21.79;34.36;101980.78;2091427;28;1181;-59
2022/05/04 01:57:50;;;;;;;;;;;;;;;21.79;33.84;101986.16;2091540;28;1024;-59
2022/05/04 01:58:51;;;;;;;;;;;;;;;21.79;33.77;101974.47;2092067;28;771;-59
2022/05/04 01:59:51;;;;;;;;;;;;;;;21.79;34.12;101978.06;2092161;28;807;-59
2022/05/04 02:00:51;;;;;;;;;;;;;;;21.81;33.90;101987.03;2092075;28;989;-58
2022/05/04 02:01:52;;;;;;;;;;;;;;;21.81;34.40;101983.41;2091448;28;1016;-58
2022/05/04 02:02:52;;;;;;;;;;;;;;;21.79;34.01;101983.47;2091277;28;1058;-59
2022/05/04 02:03:52;;;;;;;;;;;;;;;21.79;34.59;101979.88;2092015;28;1926;-59
2022/05/04 02:04:53;;;;;;;;;;;;;;;21.80;34.54;101984.34;2092075;28;993;-59
2022/05/04 02:05:54;;;;;;;;;;;;;;;21.78;34.62;101984.38;2092059;28;1004;-59
2022/05/04 02:06:55;;;;;;;;;;;;;;;21.79;33.70;101987.97;2092027;28;968;-59
2022/05/04 02:07:55;;;;;;;;;;;;;;;21.78;33.99;101987.09;2091968;28;861;-59
2022/05/04 02:08:57;;;;;;;;;;;;;;;21.79;34.80;101993.34;2092009;28;775;-59
2022/05/04 02:09:57;;;;;;;;;;;;;;;21.79;33.67;101987.97;2092039;28;759;-58
2022/05/04 02:10:57;;;;;;;;;;;;;;;21.79;33.85;101988.88;2092038;28;815;-59
2022/05/04 02:11:57;;;;;;;;;;;;;;;21.80;34.70;101989.75;2091985;28;945;-59
2022/05/04 02:12:57;;;;;;;;;;;;;;;21.79;33.85;101988.88;2091993;28;909;-59
2022/05/04 02:13:58;;;;;;;;;;;;;;;21.77;34.17;101988.91;2091514;28;1047;-59
2022/05/04 02:14:58;;;;;;;;;;;;;;;21.76;34.46;101989.84;2091988;28;973;-59
2022/05/04 02:15:58;;;;;;;;;;;;;;;21.77;34.51;101996.09;2091294;28;1381;-58
2022/05/04 02:16:59;;;;;;;;;;;;;;;21.77;34.16;101997.00;2091384;28;985;-59
2022/05/04 02:17:59;;;;;;;;;;;;;;;21.77;34.14;101997.00;2083179;28;1180;-59
2022/05/04 02:18:59;;;;;;;;;;;;;;;21.77;34.63;101991.59;2083111;28;1032;-59
2022/05/04 02:20:00;;;;;;;;;;;;;;;21.79;34.59;101996.06;2091916;28;756;-58
2022/05/04 02:21:00;;;;;;;;;;;;;;;21.78;34.22;102003.28;2091928;28;1021;-59
2022/05/04 02:22:00;;;;;;;;;;;;;;;21.77;34.62;101999.69;2091997;28;854;-59
2022/05/04 02:23:00;;;;;;;;;;;;;;;21.79;34.72;102006.84;2091931;28;830;-58
2022/05/04 02:24:00;;;;;;;;;;;;;;;21.77;33.92;101999.69;2091832;28;1882;-59
2022/05/04 02:25:01;;;;;;;;;;;;;;;21.77;34.49;102002.41;2091893;28;854;-59
2022/05/04 02:26:01;;;;;;;;;;;;;;;21.77;34.52;101998.78;2091881;28;882;-59
2022/05/04 02:27:01;;;;;;;;;;;;;;;21.77;34.19;101997.00;2091945;28;965;-58
2022/05/04 02:28:01;;;;;;;;;;;;;;;21.77;34.09;102001.50;2092018;28;763;-59
2022/05/04 02:29:01;;;;;;;;;;;;;;;21.77;34.02;101999.69;2091836;28;1032;-59
2022/05/04 02:30:02;;;;;;;;;;;;;;;21.79;33.94;102006.84;2091864;28;827;-59
2022/05/04 02:31:02;;;;;;;;;;;;;;;21.78;34.73;102003.28;2091898;28;977;-59
2022/05/04 02:32:02;;;;;;;;;;;;;;;21.77;34.69;102005.09;2092140;28;989;-58
2022/05/04 02:33:03;;;;;;;;;;;;;;;21.76;34.59;102007.81;2092375;28;1176;-59
2022/05/04 02:34:03;;;;;;;;;;;;;;;21.76;33.99;102010.50;2091812;28;989;-59
2022/05/04 02:37:56;;;;;;;;;;;;;;;21.76;34.65;102008.72;2091816;28;1318;-59
2022/05/04 02:38:56;;;;;;;;;;;;;;;21.77;34.69;102006.88;2091947;28;712;-58
2022/05/04 02:39:56;;;;;;;;;;;;;;;21.76;34.82;102007.81;2091756;28;767;-59
2022/05/04 02:40:57;;;;;;;;;;;;;;;21.75;34.78;102011.41;2091064;28;965;-58
2022/05/04 02:41:57;;;;;;;;;;;;;;;21.76;33.96;102015.91;2091180;28;858;-59
2022/05/04 02:42:57;;;;;;;;;;;;;;;21.76;33.95;102010.50;2091738;28;751;-59
2022/05/04 02:43:57;;;;;;;;;;;;;;;21.76;34.86;102018.59;2091646;28;1961;-59
2022/05/04 02:44:58;;;;;;;;;;;;;;;21.76;34.13;102016.81;2091724;28;1028;-58
2022/05/04 02:46:11;;;;;;;;;;;;;;;21.75;34.82;102017.72;2091717;28;791;-59
2022/05/04 02:47:11;;;;;;;;;;;;;;;21.77;34.60;102020.38;2091808;28;799;-59
2022/05/04 02:48:11;;;;;;;;;;;;;;;21.76;33.93;102016.81;2091730;28;851;-59
2022/05/04 02:49:11;;;;;;;;;;;;;;;21.76;34.63;102022.19;2091722;28;752;-59
2022/05/04 02:50:11;;;;;;;;;;;;;;;21.76;34.85;102019.50;2091717;28;772;-59
2022/05/04 02:51:12;;;;;;;;;;;;;;;21.75;33.98;102020.41;2091674;28;866;-58
2022/05/04 02:52:12;;;;;;;;;;;;;;;21.75;34.36;102022.22;2091740;28;929;-58
2022/05/04 02:53:12;;;;;;;;;;;;;;;21.76;34.15;102024.00;2091657;28;965;-58
2022/05/04 02:54:12;;;;;;;;;;;;;;;21.75;34.18;102020.41;2091658;28;961;-59
2022/05/04 02:55:13;;;;;;;;;;;;;;;21.76;33.99;102022.19;2091649;28;784;-59
2022/05/04 02:56:15;;;;;;;;;;;;;;;21.76;33.85;102016.81;2091781;28;794;-59
2022/05/04 02:57:16;;;;;;;;;;;;;;;21.76;34.83;102027.59;2091646;28;818;-58
2022/05/04 02:58:16;;;;;;;;;;;;;;;21.75;34.59;102020.41;2091759;28;851;-58
2022/05/04 02:59:16;;;;;;;;;;;;;;;21.74;34.01;102024.03;2091616;28;1017;-59
2022/05/04 03:00:16;;;;;;;;;;;;;;;21.74;34.60;102026.72;2091587;28;989;-59
2022/05/04 03:02:35;;;;;;;;;;;;;;;21.74;34.17;101963.78;2091484;28;1170;-58
2022/05/04 03:03:35;;;;;;;;;;;;;;;21.73;34.58;101962.94;2091762;28;772;-59
2022/05/04 03:04:36;;;;;;;;;;;;;;;21.75;33.93;101968.28;2091459;28;1906;-59
2022/05/04 03:05:36;;;;;;;;;;;;;;;21.76;34.52;101961.97;2091546;28;807;-59
2022/05/04 03:06:39;;;;;;;;;;;;;;;21.74;33.93;101959.31;2091568;28;1013;-58
2022/05/04 03:07:39;;;;;;;;;;;;;;;21.75;34.04;101984.44;2091555;28;921;-59
2022/05/04 03:08:39;;;;;;;;;;;;;;;21.76;33.77;102061.75;2091588;28;1139;-59
2022/05/04 03:09:39;;;;;;;;;;;;;;;21.76;34.82;102045.56;2091580;28;751;-59
2022/05/04 03:12:18;;;;;;;;;;;;;;;21.75;34.88;102008.72;2065945;28;1307;-59
2022/05/04 03:13:19;;;;;;;;;;;;;;;21.75;34.13;102012.31;2066031;28;1021;-59
2022/05/04 03:14:20;;;;;;;;;;;;;;;21.76;34.42;102014.09;2067246;28;745;-58
2022/05/04 03:15:20;;;;;;;;;;;;;;;21.75;34.37;102009.63;2067569;28;867;-59
2022/05/04 03:16:20;;;;;;;;;;;;;;;21.75;34.37;102006.94;2067309;28;1073;-59
2022/05/04 03:17:21;;;;;;;;;;;;;;;21.75;33.80;102011.41;2066155;28;982;-59
2022/05/04 03:18:21;;;;;;;;;;;;;;;21.75;34.70;102008.72;2065965;28;1082;-59
2022/05/04 03:19:22;;;;;;;;;;;;;;;21.75;34.18;102015.03;2065987;28;978;-58
2022/05/04 03:20:22;;;;;;;;;;;;;;;21.76;34.75;102015.91;2065995;28;859;-59
2022/05/04 03:21:22;;;;;;;;;;;;;;;21.76;34.59;102010.50;2065919;28;982;-59
2022/05/04 03:22:22;;;;;;;;;;;;;;;21.75;34.17;102015.03;2066053;28;807;-58
2022/05/04 03:23:22;;;;;;;;;;;;;;;21.76;34.71;102007.81;2066016;28;929;-59
2022/05/04 03:24:22;;;;;;;;;;;;;;;21.76;34.27;102015.91;2065794;28;1890;-59
2022/05/04 03:25:22;;;;;;;;;;;;;;;21.75;34.28;102009.63;2065207;28;1080;-59
2022/05/04 03:26:24;;;;;;;;;;;;;;;21.75;34.82;102014.13;2065897;28;870;-58
2022/05/04 03:27:24;;;;;;;;;;;;;;;21.74;34.95;102013.25;2065907;28;851;-58
2022/05/04 03:28:25;;;;;;;;;;;;;;;21.75;34.36;102011.41;2065938;28;768;-58
2022/05/04 03:29:25;;;;;;;;;;;;;;;21.76;34.28;102015.91;2065835;28;1005;-59
2022/05/04 03:30:26;;;;;;;;;;;;;;;21.76;34.91;102014.09;2065850;28;935;-59
2022/05/04 03:31:26;;;;;;;;;;;;;;;21.75;35.00;102015.03;2065886;28;853;-59
2022/05/04 03:32:26;;;;;;;;;;;;;;;21.75;34.73;101996.16;2065890;28;1047;-59
2022/05/04 03:33:26;;;;;;;;;;;;;;;21.75;34.48;102009.63;2065905;28;780;-59
2022/05/04 03:34:26;;;;;;;;;;;;;;;21.74;34.56;102007.84;2065819;28;775;-59
2022/05/04 03:35:26;;;;;;;;;;;;;;;21.75;34.30;102015.03;2065924;28;862;-58
2022/05/04 03:36:27;;;;;;;;;;;;;;;21.74;34.37;102013.25;2065800;28;918;-58
2022/05/04 03:37:27;;;;;;;;;;;;;;;21.76;34.29;102010.50;2065831;28;909;-58
2022/05/04 03:38:27;;;;;;;;;;;;;;;21.75;34.23;102001.53;2065878;28;782;-59
2022/05/04 03:39:27;;;;;;;;;;;;;;;21.75;34.42;102011.41;2065786;28;926;-59
2022/05/04 03:40:28;;;;;;;;;;;;;;;21.75;34.71;102015.03;2065867;28;859;-59
2022/05/04 03:41:28;;;;;;;;;;;;;;;21.74;34.99;102013.25;2065825;28;1009;-59
2022/05/04 03:42:28;;;;;;;;;;;;;;;21.75;34.99;102012.31;2065808;28;1037;-59
2022/05/04 03:43:28;;;;;;;;;;;;;;;21.74;34.74;102013.25;2069121;28;967;-58
2022/05/04 03:44:28;;;;;;;;;;;;;;;21.74;35.22;102015.94;2082459;28;1953;-59
2022/05/04 03:45:28;;;;;;;;;;;;;;;21.74;35.02;102015.94;2082443;28;1379;-59
2022/05/04 03:46:40;;;;;;;;;;;;;;;21.74;34.29;102018.63;2082461;28;752;-59
2022/05/04 03:47:40;;;;;;;;;;;;;;;21.75;34.70;102016.81;2091304;28;795;-58
2022/05/04 03:48:40;;;;;;;;;;;;;;;21.76;34.34;102021.28;2090602;28;661;-59
2022/05/04 03:49:40;;;;;;;;;;;;;;;21.73;34.22;102014.16;2090724;28;773;-58
2022/05/04 03:50:40;;;;;;;;;;;;;;;21.75;34.83;102024.91;2091446;28;763;-58
2022/05/04 03:51:41;;;;;;;;;;;;;;;21.74;34.96;102015.03;2091330;28;789;-58
2022/05/04 03:52:41;;;;;;;;;;;;;;;21.74;34.94;102034.81;2091241;28;977;-59
2022/05/04 03:53:42;;;;;;;;;;;;;;;21.73;34.75;102022.25;2091327;28;744;-59
2022/05/04 03:54:42;;;;;;;;;;;;;;;21.74;34.50;102020.44;2091169;28;845;-58
2022/05/04 03:55:42;;;;;;;;;;;;;;;21.73;35.00;102029.44;2091240;28;775;-59
2022/05/04 03:56:42;;;;;;;;;;;;;;;21.74;34.43;102029.44;2091350;28;905;-59
2022/05/04 03:57:42;;;;;;;;;;;;;;;21.74;34.47;102032.13;2091245;28;1215;-59
2022/05/04 03:58:43;;;;;;;;;;;;;;;21.75;35.39;102027.59;2091177;28;1055;-58
2022/05/04 03:59:43;;;;;;;;;;;;;;;21.75;34.82;102038.41;2091240;28;976;-59
2022/05/04 04:00:44;;;;;;;;;;;;;;;21.74;35.00;102029.44;2091221;28;823;-59
2022/05/04 04:01:44;;;;;;;;;;;;;;;22.66;33.11;102030.19;2091216;28;898;-59
2022/05/04 04:02:44;;;;;;;;;;;;;;;23.27;31.87;102029.59;2090419;28;1171;-59
2022/05/04 04:03:44;;;;;;;;;;;;;;;23.72;31.68;102028.41;2090645;28;969;-58
2022/05/04 04:04:44;;;;;;;;;;;;;;;24.08;30.69;102038.25;2082929;28;1910;-57
2022/05/04 04:05:44;;;;;;;;;;;;;;;24.35;30.65;102036.53;2082986;28;832;-58
2022/05/04 04:06:45;;;;;;;;;;;;;;;24.67;29.56;102029.22;2082952;28;889;-58
2022/05/04 04:07:45;;;;;;;;;;;;;;;24.91;29.03;102036.63;2083045;28;1020;-59
2022/05/04 04:08:45;;;;;;;;;;;;;;;25.16;29.37;102040.25;2082944;28;973;-58
2022/05/04 04:09:45;;;;;;;;;;;;;;;25.26;28.68;102026.38;2082943;28;877;-58
2022/05/04 04:10:46;;;;;;;;;;;;;;;25.40;28.96;102028.59;2082929;28;957;-58
2022/05/04 04:11:46;;;;;;;;;;;;;;;25.60;28.40;102030.66;2082905;28;961;-58
2022/05/04 04:12:46;;;;;;;;;;;;;;;25.73;28.03;102031.97;2083021;28;736;-59
2022/05/04 04:13:46;;;;;;;;;;;;;;;25.90;28.57;102034.06;2082896;28;858;-59
2022/05/04 04:14:46;;;;;;;;;;;;;;;26.23;27.23;102034.69;2082868;28;996;-59
2022/05/04 04:15:51;;;;;;;;;;;;;;;26.24;26.97;102018.31;2082920;28;811;-59
2022/05/04 04:16:51;;;;;;;;;;;;;;;26.21;26.95;102028.44;2082896;28;834;-59
2022/05/04 04:17:52;;;;;;;;;;;;;;;26.46;26.89;102037.41;2082944;28;704;-59
2022/05/04 04:18:52;;;;;;;;;;;;;;;26.74;26.03;102038.97;2082906;28;771;-59
2022/05/04 04:21:50;;;;;;;;;;;;;;;27.04;26.25;102035.97;2082898;28;834;-59
2022/05/04 04:22:31;;;;;;;;;;;;;;;27.22;25.75;102042.47;2082824;28;1004;-58
2022/05/04 04:23:32;;;;;;;;;;;;;;;27.45;25.29;102039.69;2082900;28;834;-58
2022/05/04 04:24:32;;;;;;;;;;;;;;;27.26;25.01;102037.75;2082805;28;1894;-58
2022/05/04 04:25:33;;;;;;;;;;;;;;;27.63;24.52;102036.19;2082944;28;830;-59
2022/05/04 04:26:34;;;;;;;;;;;;;;;27.71;24.41;102037.66;2083009;28;965;-59
2022/05/04 04:27:35;;;;;;;;;;;;;;;27.93;24.07;102046.59;2083012;28;910;-58
2022/05/04 04:28:36;;;;;;;;;;;;;;;27.88;23.96;102043.22;2082881;28;784;-59
2022/05/04 04:29:36;;;;;;;;;;;;;;;27.86;23.96;102047.84;2082898;28;889;-58
2022/05/04 04:30:36;;;;;;;;;;;;;;;27.95;24.38;102044.69;2082799;28;965;-59
2022/05/04 04:31:37;;;;;;;;;;;;;;;28.04;24.23;102037.94;2082907;28;779;-59
2022/05/04 04:32:37;;;;;;;;;;;;;;;28.26;23.74;102040.56;2082887;28;854;-59
2022/05/04 04:33:37;;;;;;;;;;;;;;;28.45;23.32;102038.81;2082867;28;814;-59
2022/05/04 04:34:38;;;;;;;;;;;;;;;28.57;23.16;102040.03;2082717;28;1606;-59
2022/05/04 04:35:38;;;;;;;;;;;;;;;28.41;24.06;102038.06;2082842;28;736;-59
2022/05/04 04:36:38;;;;;;;;;;;;;;;28.74;23.01;102042.81;2083344;28;985;-59
2022/05/04 04:37:38;;;;;;;;;;;;;;;28.62;23.70;102038.84;2084442;28;1193;-59
2022/05/04 04:38:38;;;;;;;;;;;;;;;28.74;23.01;102042.81;2084452;28;810;-59
2022/05/04 04:39:38;;;;;;;;;;;;;;;28.89;22.81;102037.56;2084489;28;920;-59
2022/05/04 04:40:39;;;;;;;;;;;;;;;28.89;23.13;102041.19;2084487;28;859;-59
2022/05/04 04:41:39;;;;;;;;;;;;;;;29.13;22.49;102041.78;2084566;28;800;-58
2022/05/04 04:42:39;;;;;;;;;;;;;;;29.16;22.84;102037.13;2084672;28;682;-58
2022/05/04 04:43:40;;;;;;;;;;;;;;;29.09;22.91;102037.44;2084468;28;765;-59
2022/05/04 04:44:40;;;;;;;;;;;;;;;29.01;22.87;102036.94;2084477;28;1957;-59
2022/05/04 04:45:40;;;;;;;;;;;;;;;29.10;22.75;102041.06;2084488;28;743;-59
2022/05/04 04:46:41;;;;;;;;;;;;;;;29.05;22.88;102044.03;2084422;28;799;-59
2022/05/04 04:47:41;;;;;;;;;;;;;;;29.29;22.53;102044.59;2084455;28;772;-59
2022/05/04 04:48:41;;;;;;;;;;;;;;;29.31;22.13;102051.81;2084556;28;807;-59
2022/05/04 04:49:41;;;;;;;;;;;;;;;29.31;22.28;102043.63;2084470;28;969;-59
2022/05/04 04:50:45;;;;;;;;;;;;;;;29.01;23.03;102050.59;2084467;28;848;-59
2022/05/04 04:51:45;;;;;;;;;;;;;;;28.95;23.15;102040.00;2084392;28;977;-59
2022/05/04 04:52:45;;;;;;;;;;;;;;;29.14;22.54;102048.16;2084408;28;1020;-59
2022/05/04 04:53:45;;;;;;;;;;;;;;;29.41;22.22;102051.31;2084356;28;977;-59
2022/05/04 04:54:45;;;;;;;;;;;;;;;29.27;22.65;102051.09;2084401;28;822;-59
2022/05/04 04:55:46;;;;;;;;;;;;;;;29.30;22.43;102059.13;2084367;28;973;-59
2022/05/04 04:56:46;;;;;;;;;;;;;;;29.37;21.98;102049.69;2084366;28;913;-59
2022/05/04 04:57:47;;;;;;;;;;;;;;;29.16;22.22;102053.50;2084314;28;1020;-59
2022/05/04 04:58:47;;;;;;;;;;;;;;;29.22;22.30;102053.19;2084315;28;866;-59
2022/05/04 04:59:49;;;;;;;;;;;;;;;29.33;22.53;102052.63;2084359;28;835;-59
2022/05/04 05:00:50;;;;;;;;;;;;;;;29.31;22.69;102060.00;2084600;28;798;-59
2022/05/04 05:01:50;;;;;;;;;;;;;;;29.56;21.83;102057.78;2084597;28;787;-58
2022/05/04 05:02:50;;;;;;;;;;;;;;;29.48;22.57;102051.84;2087358;28;1162;-58
2022/05/04 05:03:50;;;;;;;;;;;;;;;29.25;22.19;102069.41;2092717;28;970;-58
2022/05/04 05:04:50;;;;;;;;;;;;;;;29.11;22.45;102059.22;2092516;28;1973;-59
2022/05/04 05:05:51;;;;;;;;;;;;;;;29.51;22.44;102053.53;2092642;28;1025;-59
2022/05/04 05:06:51;;;;;;;;;;;;;;;29.63;21.60;102062.94;2092540;28;819;-59
2022/05/04 05:07:52;;;;;;;;;;;;;;;29.57;22.36;102059.56;2092491;28;914;-59
2022/05/04 05:08:52;;;;;;;;;;;;;;;29.75;22.20;102054.06;2092488;28;784;-59
2022/05/04 05:09:52;;;;;;;;;;;;;;;29.56;21.74;102055.06;2092497;28;1025;-59
2022/05/04 05:10:52;;;;;;;;;;;;;;;29.45;22.02;102049.28;2092440;28;659;-59
2022/05/04 05:11:52;;;;;;;;;;;;;;;29.50;21.82;102047.19;2083592;28;1192;-59
2022/05/04 05:12:52;;;;;;;;;;;;;;;29.47;21.98;102062.84;2083608;28;925;-59
2022/05/04 05:16:30;;;;;;;;;;;;;;;29.75;21.79;102059.53;2092460;28;633;-58
2022/05/04 05:17:31;;;;;;;;;;;;;;;29.92;21.74;102060.47;2092452;28;974;-59
2022/05/04 05:18:32;;;;;;;;;;;;;;;29.63;21.47;102055.59;2092398;28;810;-58
2022/05/04 05:19:32;;;;;;;;;;;;;;;29.18;21.94;102066.09;2083487;28;800;-58
2022/05/04 05:20:32;;;;;;;;;;;;;;;29.30;21.81;102072.78;2083551;28;974;-58
2022/05/04 05:21:32;;;;;;;;;;;;;;;29.23;21.66;102063.13;2092445;28;878;-59
2022/05/04 05:22:33;;;;;;;;;;;;;;;29.12;22.26;102063.72;2092274;28;1032;-59
2022/05/04 05:23:33;;;;;;;;;;;;;;;29.12;22.02;102069.16;2091678;28;821;-58
2022/05/04 05:24:33;;;;;;;;;;;;;;;29.27;21.41;102064.75;2091779;28;1894;-58
2022/05/04 05:25:33;;;;;;;;;;;;;;;29.24;22.05;102070.38;2092361;28;792;-58
2022/05/04 05:26:33;;;;;;;;;;;;;;;29.12;21.71;102069.16;2092503;28;722;-59
2022/05/04 05:27:34;;;;;;;;;;;;;;;29.19;21.78;102072.44;2092320;28;772;-58
2022/05/04 05:28:34;;;;;;;;;;;;;;;29.23;21.91;102077.66;2092270;28;977;-58
2022/05/04 05:29:34;;;;;;;;;;;;;;;29.29;21.45;102079.19;2092327;28;756;-59
2022/05/04 05:30:34;;;;;;;;;;;;;;;29.26;21.65;102073.91;2092345;28;866;-59